sensor_id;sensor_type;location;lat;lon;timestamp;P1;durP1;ratioP1;P2;durP2;ratioP2
21281;SDS011;10800;53.096;18.328;2022-12-07T00:01:48;12.40;;;2.80;;
21281;SDS011;10800;53.096;18.328;2022-12-07T00:18:10;10.43;;;3.70;;
21281;SDS011;10800;53.096;18.328;2022-12-07T00:23:20;8.90;;;2.10;;
21281;SDS011;10800;53.096;18.328;2022-12-07T00:28:39;3.77;;;3.10;;
21281;SDS011;10800;53.096;18.328;2022-12-07T00:34:12;5.63;;;2.60;;
21281;SDS011;10800;53.096;18.328;2022-12-07T00:39:29;4.10;;;2.37;;
21281;SDS011;10800;53.096;18.328;2022-12-07T00:44:36;2.50;;;2.23;;
21281;SDS011;10800;53.096;18.328;2022-12-07T00:50:08;6.93;;;2.37;;
21281;SDS011;10800;53.096;18.328;2022-12-07T00:55:49;4.57;;;1.83;;
21281;SDS011;10800;53.096;18.328;2022-12-07T01:01:20;3.27;;;2.40;;
21281;SDS011;10800;53.096;18.328;2022-12-07T01:12:25;13.13;;;2.40;;
21281;SDS011;10800;53.096;18.328;2022-12-07T01:17:53;6.10;;;3.33;;
21281;SDS011;10800;53.096;18.328;2022-12-07T01:23:28;7.70;;;3.00;;
21281;SDS011;10800;53.096;18.328;2022-12-07T01:28:51;7.90;;;2.90;;
21281;SDS011;10800;53.096;18.328;2022-12-07T01:39:50;5.13;;;2.50;;
21281;SDS011;10800;53.096;18.328;2022-12-07T01:50:50;1.60;;;1.27;;
21281;SDS011;10800;53.096;18.328;2022-12-07T01:56:19;3.83;;;2.33;;
21281;SDS011;10800;53.096;18.328;2022-12-07T02:01:49;2.40;;;1.23;;
21281;SDS011;10800;53.096;18.328;2022-12-07T02:07:08;4.47;;;1.63;;
21281;SDS011;10800;53.096;18.328;2022-12-07T02:12:39;1.47;;;1.33;;
21281;SDS011;10800;53.096;18.328;2022-12-07T02:24:02;4.17;;;1.80;;
21281;SDS011;10800;53.096;18.328;2022-12-07T02:35:06;4.07;;;2.47;;
21281;SDS011;10800;53.096;18.328;2022-12-07T02:46:23;4.73;;;2.10;;
21281;SDS011;10800;53.096;18.328;2022-12-07T02:51:31;4.07;;;2.10;;
21281;SDS011;10800;53.096;18.328;2022-12-07T02:56:48;5.97;;;3.03;;
21281;SDS011;10800;53.096;18.328;2022-12-07T03:07:26;5.47;;;3.43;;
21281;SDS011;10800;53.096;18.328;2022-12-07T03:23:44;8.00;;;3.70;;
21281;SDS011;10800;53.096;18.328;2022-12-07T03:34:45;6.40;;;4.30;;
21281;SDS011;10800;53.096;18.328;2022-12-07T03:40:01;15.83;;;4.30;;
21281;SDS011;10800;53.096;18.328;2022-12-07T03:45:22;8.10;;;3.63;;
21281;SDS011;10800;53.096;18.328;2022-12-07T03:50:36;9.73;;;3.67;;
21281;SDS011;10800;53.096;18.328;2022-12-07T03:55:45;10.27;;;2.57;;
21281;SDS011;10800;53.096;18.328;2022-12-07T04:00:53;8.27;;;3.53;;
21281;SDS011;10800;53.096;18.328;2022-12-07T04:05:59;5.97;;;2.63;;
21281;SDS011;10800;53.096;18.328;2022-12-07T04:11:08;6.93;;;3.30;;
21281;SDS011;10800;53.096;18.328;2022-12-07T04:16:14;6.00;;;2.93;;
21281;SDS011;10800;53.096;18.328;2022-12-07T04:21:24;7.27;;;3.50;;
21281;SDS011;10800;53.096;18.328;2022-12-07T04:26:30;10.13;;;3.53;;
21281;SDS011;10800;53.096;18.328;2022-12-07T04:31:39;18.37;;;5.77;;
21281;SDS011;10800;53.096;18.328;2022-12-07T04:37:05;8.23;;;4.80;;
21281;SDS011;10800;53.096;18.328;2022-12-07T04:42:35;10.13;;;3.50;;
21281;SDS011;10800;53.096;18.328;2022-12-07T04:47:44;9.43;;;5.27;;
21281;SDS011;10800;53.096;18.328;2022-12-07T04:52:54;10.17;;;4.27;;
21281;SDS011;10800;53.096;18.328;2022-12-07T04:58:02;4.90;;;3.07;;
21281;SDS011;10800;53.096;18.328;2022-12-07T05:03:50;4.43;;;2.33;;
21281;SDS011;10800;53.096;18.328;2022-12-07T05:09:06;5.13;;;2.17;;
21281;SDS011;10800;53.096;18.328;2022-12-07T05:14:53;3.23;;;1.53;;
21281;SDS011;10800;53.096;18.328;2022-12-07T05:20:03;6.73;;;2.83;;
21281;SDS011;10800;53.096;18.328;2022-12-07T05:25:23;4.03;;;2.60;;
21281;SDS011;10800;53.096;18.328;2022-12-07T05:30:32;3.27;;;1.53;;
21281;SDS011;10800;53.096;18.328;2022-12-07T05:35:48;3.60;;;1.97;;
21281;SDS011;10800;53.096;18.328;2022-12-07T05:41:29;1.37;;;1.27;;
21281;SDS011;10800;53.096;18.328;2022-12-07T05:46:49;2.43;;;1.80;;
21281;SDS011;10800;53.096;18.328;2022-12-07T05:52:05;3.40;;;1.93;;
21281;SDS011;10800;53.096;18.328;2022-12-07T05:57:39;3.03;;;2.07;;
21281;SDS011;10800;53.096;18.328;2022-12-07T06:02:58;2.67;;;1.60;;
21281;SDS011;10800;53.096;18.328;2022-12-07T06:08:36;2.50;;;1.73;;
21281;SDS011;10800;53.096;18.328;2022-12-07T06:14:13;5.47;;;3.40;;
21281;SDS011;10800;53.096;18.328;2022-12-07T06:19:25;7.00;;;2.73;;
21281;SDS011;10800;53.096;18.328;2022-12-07T06:24:40;9.67;;;2.37;;
21281;SDS011;10800;53.096;18.328;2022-12-07T06:29:49;3.97;;;2.47;;
21281;SDS011;10800;53.096;18.328;2022-12-07T06:35:14;4.13;;;2.10;;
21281;SDS011;10800;53.096;18.328;2022-12-07T06:40:50;4.37;;;2.00;;
21281;SDS011;10800;53.096;18.328;2022-12-07T06:45:58;9.57;;;3.67;;
21281;SDS011;10800;53.096;18.328;2022-12-07T06:51:10;4.73;;;1.73;;
21281;SDS011;10800;53.096;18.328;2022-12-07T06:56:50;10.43;;;2.70;;
21281;SDS011;10800;53.096;18.328;2022-12-07T07:02:07;12.83;;;5.13;;
21281;SDS011;10800;53.096;18.328;2022-12-07T07:07:18;12.00;;;4.57;;
21281;SDS011;10800;53.096;18.328;2022-12-07T07:12:34;7.00;;;2.83;;
21281;SDS011;10800;53.096;18.328;2022-12-07T07:17:48;4.67;;;2.47;;
21281;SDS011;10800;53.096;18.328;2022-12-07T07:23:05;4.53;;;2.80;;
21281;SDS011;10800;53.096;18.328;2022-12-07T07:34:23;8.00;;;3.40;;
21281;SDS011;10800;53.096;18.328;2022-12-07T07:45:47;4.70;;;2.93;;
21281;SDS011;10800;53.096;18.328;2022-12-07T07:51:11;10.37;;;4.17;;
21281;SDS011;10800;53.096;18.328;2022-12-07T07:57:04;4.27;;;3.23;;
21281;SDS011;10800;53.096;18.328;2022-12-07T08:02:37;9.87;;;3.30;;
21281;SDS011;10800;53.096;18.328;2022-12-07T08:07:47;4.63;;;3.13;;
21281;SDS011;10800;53.096;18.328;2022-12-07T08:13:09;6.63;;;3.60;;
21281;SDS011;10800;53.096;18.328;2022-12-07T08:18:41;6.93;;;2.67;;
21281;SDS011;10800;53.096;18.328;2022-12-07T08:24:06;3.93;;;3.00;;
21281;SDS011;10800;53.096;18.328;2022-12-07T08:29:42;8.77;;;3.50;;
21281;SDS011;10800;53.096;18.328;2022-12-07T08:35:15;5.83;;;2.67;;
21281;SDS011;10800;53.096;18.328;2022-12-07T08:47:25;5.23;;;2.80;;
21281;SDS011;10800;53.096;18.328;2022-12-07T08:53:00;5.67;;;3.13;;
21281;SDS011;10800;53.096;18.328;2022-12-07T09:23:00;4.70;;;3.37;;
21281;SDS011;10800;53.096;18.328;2022-12-07T09:39:53;2.33;;;2.00;;
21281;SDS011;10800;53.096;18.328;2022-12-07T10:09:21;4.73;;;3.00;;
21281;SDS011;10800;53.096;18.328;2022-12-07T10:28:02;5.07;;;3.17;;
21281;SDS011;10800;53.096;18.328;2022-12-07T10:39:27;4.40;;;2.33;;
21281;SDS011;10800;53.096;18.328;2022-12-07T10:45:16;13.07;;;2.83;;
21281;SDS011;10800;53.096;18.328;2022-12-07T10:51:10;5.00;;;3.23;;
21281;SDS011;10800;53.096;18.328;2022-12-07T11:20:12;3.07;;;2.27;;
21281;SDS011;10800;53.096;18.328;2022-12-07T11:26:06;7.97;;;2.23;;
21281;SDS011;10800;53.096;18.328;2022-12-07T11:43:30;7.80;;;4.10;;
21281;SDS011;10800;53.096;18.328;2022-12-07T11:48:53;6.77;;;3.73;;
21281;SDS011;10800;53.096;18.328;2022-12-07T11:54:11;4.47;;;2.70;;
21281;SDS011;10800;53.096;18.328;2022-12-07T11:59:33;4.33;;;2.90;;
21281;SDS011;10800;53.096;18.328;2022-12-07T12:04:54;3.00;;;2.63;;
21281;SDS011;10800;53.096;18.328;2022-12-07T12:10:15;2.73;;;2.50;;
21281;SDS011;10800;53.096;18.328;2022-12-07T12:20:48;2.77;;;1.97;;
21281;SDS011;10800;53.096;18.328;2022-12-07T12:26:06;4.07;;;2.60;;
21281;SDS011;10800;53.096;18.328;2022-12-07T12:42:59;8.03;;;3.63;;
21281;SDS011;10800;53.096;18.328;2022-12-07T12:48:43;4.50;;;2.53;;
21281;SDS011;10800;53.096;18.328;2022-12-07T12:54:25;6.73;;;3.43;;
21281;SDS011;10800;53.096;18.328;2022-12-07T12:59:38;2.97;;;2.10;;
21281;SDS011;10800;53.096;18.328;2022-12-07T13:05:14;3.67;;;3.10;;
21281;SDS011;10800;53.096;18.328;2022-12-07T13:10:42;2.97;;;2.13;;
21281;SDS011;10800;53.096;18.328;2022-12-07T13:15:54;6.57;;;2.03;;
21281;SDS011;10800;53.096;18.328;2022-12-07T13:26:37;4.60;;;2.20;;
21281;SDS011;10800;53.096;18.328;2022-12-07T13:31:49;2.73;;;2.43;;
21281;SDS011;10800;53.096;18.328;2022-12-07T13:37:29;3.70;;;2.17;;
21281;SDS011;10800;53.096;18.328;2022-12-07T13:43:01;5.20;;;2.27;;
21281;SDS011;10800;53.096;18.328;2022-12-07T13:48:16;4.27;;;2.63;;
21281;SDS011;10800;53.096;18.328;2022-12-07T13:53:59;5.63;;;3.33;;
21281;SDS011;10800;53.096;18.328;2022-12-07T14:04:46;4.03;;;2.23;;
21281;SDS011;10800;53.096;18.328;2022-12-07T14:10:02;9.23;;;2.87;;
21281;SDS011;10800;53.096;18.328;2022-12-07T14:15:20;5.30;;;3.20;;
21281;SDS011;10800;53.096;18.328;2022-12-07T14:20:34;4.97;;;3.30;;
21281;SDS011;10800;53.096;18.328;2022-12-07T14:26:13;4.03;;;2.50;;
21281;SDS011;10800;53.096;18.328;2022-12-07T14:31:23;4.00;;;1.80;;
21281;SDS011;10800;53.096;18.328;2022-12-07T14:36:51;7.03;;;3.10;;
21281;SDS011;10800;53.096;18.328;2022-12-07T14:42:04;4.03;;;2.80;;
21281;SDS011;10800;53.096;18.328;2022-12-07T14:47:11;4.17;;;2.73;;
21281;SDS011;10800;53.096;18.328;2022-12-07T14:52:23;7.50;;;3.27;;
21281;SDS011;10800;53.096;18.328;2022-12-07T14:57:33;2.20;;;2.00;;
21281;SDS011;10800;53.096;18.328;2022-12-07T15:02:40;4.27;;;2.47;;
21281;SDS011;10800;53.096;18.328;2022-12-07T15:07:47;5.80;;;2.60;;
21281;SDS011;10800;53.096;18.328;2022-12-07T15:12:56;2.27;;;1.80;;
21281;SDS011;10800;53.096;18.328;2022-12-07T15:18:04;4.83;;;2.73;;
21281;SDS011;10800;53.096;18.328;2022-12-07T15:23:09;5.47;;;2.77;;
21281;SDS011;10800;53.096;18.328;2022-12-07T15:28:15;2.50;;;2.03;;
21281;SDS011;10800;53.096;18.328;2022-12-07T15:33:21;7.13;;;2.87;;
21281;SDS011;10800;53.096;18.328;2022-12-07T15:38:26;3.77;;;1.63;;
21281;SDS011;10800;53.096;18.328;2022-12-07T15:43:35;2.90;;;2.10;;
21281;SDS011;10800;53.096;18.328;2022-12-07T15:48:59;5.20;;;2.00;;
21281;SDS011;10800;53.096;18.328;2022-12-07T15:54:04;5.03;;;2.87;;
21281;SDS011;10800;53.096;18.328;2022-12-07T15:59:10;4.47;;;2.67;;
21281;SDS011;10800;53.096;18.328;2022-12-07T16:04:15;6.60;;;3.37;;
21281;SDS011;10800;53.096;18.328;2022-12-07T16:09:21;7.60;;;2.97;;
21281;SDS011;10800;53.096;18.328;2022-12-07T16:14:26;2.03;;;1.67;;
21281;SDS011;10800;53.096;18.328;2022-12-07T16:19:31;4.67;;;3.50;;
21281;SDS011;10800;53.096;18.328;2022-12-07T16:24:37;4.80;;;3.33;;
21281;SDS011;10800;53.096;18.328;2022-12-07T16:29:42;3.27;;;2.47;;
21281;SDS011;10800;53.096;18.328;2022-12-07T16:34:48;4.03;;;2.50;;
21281;SDS011;10800;53.096;18.328;2022-12-07T16:39:53;3.03;;;2.03;;
21281;SDS011;10800;53.096;18.328;2022-12-07T16:44:59;5.10;;;2.53;;
21281;SDS011;10800;53.096;18.328;2022-12-07T16:50:05;17.97;;;4.43;;
21281;SDS011;10800;53.096;18.328;2022-12-07T16:55:11;4.90;;;2.70;;
21281;SDS011;10800;53.096;18.328;2022-12-07T17:00:16;4.13;;;2.90;;
21281;SDS011;10800;53.096;18.328;2022-12-07T17:05:22;10.57;;;3.97;;
21281;SDS011;10800;53.096;18.328;2022-12-07T17:10:28;4.50;;;2.40;;
21281;SDS011;10800;53.096;18.328;2022-12-07T17:15:33;7.00;;;2.87;;
21281;SDS011;10800;53.096;18.328;2022-12-07T17:20:39;3.43;;;2.60;;
21281;SDS011;10800;53.096;18.328;2022-12-07T17:25:44;5.17;;;2.20;;
21281;SDS011;10800;53.096;18.328;2022-12-07T17:30:49;4.93;;;2.83;;
21281;SDS011;10800;53.096;18.328;2022-12-07T17:35:55;8.23;;;4.13;;
21281;SDS011;10800;53.096;18.328;2022-12-07T17:41:07;4.30;;;2.00;;
21281;SDS011;10800;53.096;18.328;2022-12-07T17:46:18;6.53;;;3.63;;
21281;SDS011;10800;53.096;18.328;2022-12-07T17:51:26;6.20;;;3.67;;
21281;SDS011;10800;53.096;18.328;2022-12-07T17:56:59;7.07;;;3.00;;
21281;SDS011;10800;53.096;18.328;2022-12-07T18:02:08;3.43;;;2.33;;
21281;SDS011;10800;53.096;18.328;2022-12-07T18:07:14;4.37;;;2.03;;
21281;SDS011;10800;53.096;18.328;2022-12-07T18:12:23;5.97;;;2.67;;
21281;SDS011;10800;53.096;18.328;2022-12-07T18:17:29;7.23;;;1.73;;
21281;SDS011;10800;53.096;18.328;2022-12-07T18:22:34;4.13;;;2.97;;
21281;SDS011;10800;53.096;18.328;2022-12-07T18:27:41;4.33;;;1.97;;
21281;SDS011;10800;53.096;18.328;2022-12-07T18:32:51;7.27;;;2.40;;
21281;SDS011;10800;53.096;18.328;2022-12-07T18:37:58;8.37;;;2.13;;
21281;SDS011;10800;53.096;18.328;2022-12-07T18:43:16;1.03;;;0.83;;
21281;SDS011;10800;53.096;18.328;2022-12-07T18:48:26;2.93;;;0.90;;
21281;SDS011;10800;53.096;18.328;2022-12-07T18:53:36;1.03;;;0.73;;
21281;SDS011;10800;53.096;18.328;2022-12-07T18:58:52;1.50;;;1.37;;
21281;SDS011;10800;53.096;18.328;2022-12-07T19:04:17;3.27;;;1.93;;
21281;SDS011;10800;53.096;18.328;2022-12-07T19:09:43;3.03;;;1.43;;
21281;SDS011;10800;53.096;18.328;2022-12-07T19:14:47;0.97;;;0.90;;
21281;SDS011;10800;53.096;18.328;2022-12-07T19:20:09;1.43;;;1.33;;
21281;SDS011;10800;53.096;18.328;2022-12-07T19:25:23;2.17;;;1.97;;
21281;SDS011;10800;53.096;18.328;2022-12-07T19:30:29;1.33;;;1.07;;
21281;SDS011;10800;53.096;18.328;2022-12-07T19:35:54;2.33;;;1.37;;
21281;SDS011;10800;53.096;18.328;2022-12-07T19:46:47;0.97;;;0.83;;
21281;SDS011;10800;53.096;18.328;2022-12-07T19:52:06;3.67;;;1.80;;
21281;SDS011;10800;53.096;18.328;2022-12-07T19:57:13;3.70;;;2.07;;
21281;SDS011;10800;53.096;18.328;2022-12-07T20:02:40;2.57;;;1.47;;
21281;SDS011;10800;53.096;18.328;2022-12-07T20:08:16;4.33;;;1.77;;
21281;SDS011;10800;53.096;18.328;2022-12-07T20:24:58;3.17;;;1.60;;
21281;SDS011;10800;53.096;18.328;2022-12-07T20:30:10;3.90;;;2.00;;
21281;SDS011;10800;53.096;18.328;2022-12-07T20:35:43;7.53;;;1.33;;
21281;SDS011;10800;53.096;18.328;2022-12-07T20:40:58;6.07;;;1.93;;
21281;SDS011;10800;53.096;18.328;2022-12-07T20:46:14;2.57;;;1.03;;
21281;SDS011;10800;53.096;18.328;2022-12-07T20:51:28;7.27;;;2.47;;
21281;SDS011;10800;53.096;18.328;2022-12-07T20:56:36;3.60;;;1.43;;
21281;SDS011;10800;53.096;18.328;2022-12-07T21:01:44;5.10;;;1.33;;
21281;SDS011;10800;53.096;18.328;2022-12-07T21:06:50;2.67;;;1.53;;
21281;SDS011;10800;53.096;18.328;2022-12-07T21:11:56;6.10;;;1.83;;
21281;SDS011;10800;53.096;18.328;2022-12-07T21:17:01;0.87;;;0.87;;
21281;SDS011;10800;53.096;18.328;2022-12-07T21:27:17;1.23;;;0.97;;
21281;SDS011;10800;53.096;18.328;2022-12-07T21:32:39;3.50;;;1.83;;
21281;SDS011;10800;53.096;18.328;2022-12-07T21:37:44;1.93;;;1.63;;
21281;SDS011;10800;53.096;18.328;2022-12-07T21:42:52;3.10;;;1.70;;
21281;SDS011;10800;53.096;18.328;2022-12-07T21:48:01;1.33;;;1.03;;
21281;SDS011;10800;53.096;18.328;2022-12-07T21:53:09;7.70;;;1.40;;
21281;SDS011;10800;53.096;18.328;2022-12-07T21:58:15;3.80;;;1.70;;
21281;SDS011;10800;53.096;18.328;2022-12-07T22:03:24;2.43;;;1.30;;
21281;SDS011;10800;53.096;18.328;2022-12-07T22:08:29;1.83;;;1.47;;
21281;SDS011;10800;53.096;18.328;2022-12-07T22:13:38;2.40;;;1.30;;
21281;SDS011;10800;53.096;18.328;2022-12-07T22:19:02;2.83;;;1.27;;
21281;SDS011;10800;53.096;18.328;2022-12-07T22:24:08;5.13;;;1.97;;
21281;SDS011;10800;53.096;18.328;2022-12-07T22:29:17;0.97;;;0.97;;
21281;SDS011;10800;53.096;18.328;2022-12-07T22:34:23;1.70;;;1.20;;
21281;SDS011;10800;53.096;18.328;2022-12-07T22:39:29;1.70;;;1.43;;
21281;SDS011;10800;53.096;18.328;2022-12-07T22:44:35;3.13;;;1.47;;
21281;SDS011;10800;53.096;18.328;2022-12-07T22:49:40;2.37;;;2.13;;
21281;SDS011;10800;53.096;18.328;2022-12-07T22:54:46;1.07;;;0.97;;
21281;SDS011;10800;53.096;18.328;2022-12-07T22:59:51;3.77;;;0.90;;
21281;SDS011;10800;53.096;18.328;2022-12-07T23:04:57;3.23;;;1.10;;
21281;SDS011;10800;53.096;18.328;2022-12-07T23:10:03;2.03;;;1.57;;
21281;SDS011;10800;53.096;18.328;2022-12-07T23:15:09;2.40;;;1.73;;
21281;SDS011;10800;53.096;18.328;2022-12-07T23:20:15;6.90;;;2.10;;
21281;SDS011;10800;53.096;18.328;2022-12-07T23:25:21;1.90;;;1.60;;
21281;SDS011;10800;53.096;18.328;2022-12-07T23:30:26;2.50;;;1.37;;
21281;SDS011;10800;53.096;18.328;2022-12-07T23:35:32;0.93;;;0.93;;
21281;SDS011;10800;53.096;18.328;2022-12-07T23:40:37;2.03;;;1.40;;
21281;SDS011;10800;53.096;18.328;2022-12-07T23:45:44;1.10;;;1.07;;
21281;SDS011;10800;53.096;18.328;2022-12-07T23:50:50;1.77;;;0.87;;
21281;SDS011;10800;53.096;18.328;2022-12-07T23:55:55;3.50;;;1.43;;
